Cherokee Falls, South Carolina
Current Conditions -  °F | °C
As of 4:15 AM on Wednesday 28 Jan 2015 (Local Time) from KEHO Reporting Station
Clear Clear  
Wind Chill: 30°   Ceiling: Unl
Heat Index: 30°   Visibility: 10mi
Dew Point: 15°   Wind: 3mph
Humidity: 53%   Direction: 10°N
Pressure: 30.1"   Gusts: NA
Location:  35.1147°N, 81.4908°W
Report Text: KEHO 280915Z AUTO 01003KT 10SM CLR M01/M09 A3010 RMK AO2 T10101095
Loading
Personal Weather Stations






























Interactive Weather Map New forecast layout! Learn more

10-Day Weather Forecast

Advertisements
Track Severe Weather on mobile